createdAt,value
2023-03-26T00:01:54.392Z,7.20
2023-03-26T00:04:57.188Z,7.33
2023-03-26T00:07:59.968Z,7.34
2023-03-26T00:11:03.701Z,7.30
2023-03-26T00:14:06.552Z,7.32
2023-03-26T00:17:09.298Z,7.28
2023-03-26T00:20:13.272Z,7.29
2023-03-26T00:23:16.232Z,7.34
2023-03-26T00:26:19.053Z,7.25
2023-03-26T00:29:28.229Z,7.24
2023-03-26T00:32:31.597Z,7.24
2023-03-26T00:35:38.833Z,7.26
2023-03-26T00:38:42.526Z,7.22
2023-03-26T00:41:45.522Z,7.10
2023-03-26T00:44:48.517Z,6.98
2023-03-26T00:47:51.954Z,6.93
2023-03-26T00:50:54.751Z,6.97
2023-03-26T00:53:58.144Z,6.89
2023-03-26T00:57:01.025Z,6.94
2023-03-26T01:00:17.336Z,6.91
2023-03-26T01:03:27.762Z,6.85
2023-03-26T01:06:38.009Z,6.81
2023-03-26T01:09:45.304Z,6.81
2023-03-26T01:12:47.785Z,6.78
2023-03-26T01:15:51.495Z,6.74
2023-03-26T01:18:54.722Z,6.83
2023-03-26T01:21:59.136Z,6.78
2023-03-26T01:25:01.841Z,6.78
2023-03-26T01:28:08.924Z,6.73
2023-03-26T01:31:29.852Z,6.72
2023-03-26T01:34:38.660Z,6.70
2023-03-26T01:41:47.320Z,6.42
2023-03-26T01:45:17.605Z,6.36
2023-03-26T01:48:20.868Z,6.42
2023-03-26T01:51:35.828Z,6.41
2023-03-26T01:54:38.727Z,6.36
2023-03-26T01:57:55.195Z,6.27
2023-03-26T02:01:12.958Z,6.37
2023-03-26T02:04:27.822Z,6.18
2023-03-26T02:07:51.246Z,6.18
2023-03-26T02:10:58.161Z,6.13
2023-03-26T02:14:01.009Z,6.18
2023-03-26T02:17:03.760Z,6.12
2023-03-26T02:20:10.246Z,5.96
2023-03-26T02:26:16.856Z,5.91
2023-03-26T02:35:23.644Z,5.78
2023-03-26T02:41:28.481Z,5.52
2023-03-26T02:44:31.362Z,5.40
2023-03-26T02:47:35.366Z,5.54
2023-03-26T02:50:39.506Z,5.48
2023-03-26T02:53:42.317Z,5.42
2023-03-26T02:56:45.104Z,5.22
2023-03-26T02:59:50.559Z,5.14
2023-03-26T03:02:54.382Z,4.98
2023-03-26T03:05:57.607Z,4.90
2023-03-26T03:09:02.882Z,4.70
2023-03-26T03:12:06.038Z,4.60
2023-03-26T03:15:09.663Z,4.59
2023-03-26T03:18:12.440Z,4.56
2023-03-26T03:21:15.216Z,4.59
2023-03-26T03:24:18.836Z,4.61
2023-03-26T03:27:22.462Z,4.64
2023-03-26T03:30:26.173Z,4.70
2023-03-26T03:33:29.014Z,4.77
2023-03-26T03:36:33.642Z,4.97
2023-03-26T03:39:36.452Z,5.06
2023-03-26T03:42:39.579Z,5.11
2023-03-26T03:45:42.363Z,5.14
2023-03-26T03:48:49.989Z,5.03
2023-03-26T03:51:52.855Z,5.57
2023-03-26T03:57:59.382Z,5.59
2023-03-26T04:01:03.225Z,5.47
2023-03-26T04:04:06.215Z,5.48
2023-03-26T04:07:09.051Z,5.43
2023-03-26T04:10:14.388Z,5.42
2023-03-26T04:13:18.126Z,5.87
2023-03-26T04:16:21.411Z,5.98
2023-03-26T04:19:24.971Z,6.09
2023-03-26T04:22:34.834Z,6.24
2023-03-26T04:28:43.384Z,6.34
2023-03-26T04:31:47.353Z,6.31
2023-03-26T04:34:50.237Z,6.31
2023-03-26T04:37:53.143Z,6.29
2023-03-26T04:41:01.203Z,6.36
2023-03-26T04:44:05.569Z,6.36
2023-03-26T04:50:11.450Z,6.27
2023-03-26T04:53:19.216Z,6.18
2023-03-26T04:56:36.563Z,6.15
2023-03-26T04:59:41.524Z,6.12
2023-03-26T05:02:44.752Z,6.09
2023-03-26T05:05:49.869Z,6.15
2023-03-26T05:08:53.018Z,6.09
2023-03-26T05:14:57.329Z,6.04
2023-03-26T05:18:00.266Z,6.06
2023-03-26T05:21:03.211Z,6.07
2023-03-26T05:24:06.853Z,6.05
2023-03-26T05:27:14.741Z,6.09
2023-03-26T05:30:20.668Z,6.16
2023-03-26T05:33:23.767Z,6.22
2023-03-26T05:36:28.628Z,6.29
2023-03-26T05:39:31.606Z,6.36
2023-03-26T05:42:34.443Z,6.42
2023-03-26T05:45:37.351Z,6.59
2023-03-26T05:48:40.489Z,6.67
2023-03-26T05:51:43.274Z,6.70
2023-03-26T05:54:46.057Z,6.85
2023-03-26T05:57:48.796Z,7.02
2023-03-26T06:01:08.666Z,7.28
2023-03-26T06:04:17.911Z,7.45
2023-03-26T06:07:21.242Z,7.56
2023-03-26T06:10:24.104Z,7.62
2023-03-26T06:13:27.189Z,7.62
2023-03-26T06:19:31.602Z,7.83
2023-03-26T06:22:34.473Z,8.10
2023-03-26T06:25:37.849Z,8.28
2023-03-26T06:28:41.237Z,8.20
2023-03-26T06:31:44.143Z,8.20
2023-03-26T06:34:46.994Z,8.26
2023-03-26T06:37:49.788Z,8.39
2023-03-26T06:40:52.738Z,8.74
2023-03-26T06:43:56.007Z,8.86
2023-03-26T06:46:59.092Z,8.91
2023-03-26T06:50:01.832Z,9.00
2023-03-26T06:53:04.832Z,9.02
2023-03-26T06:56:09.144Z,9.15
2023-03-26T06:59:11.979Z,9.37
2023-03-26T07:02:14.718Z,9.63
2023-03-26T07:05:17.850Z,9.72
2023-03-26T07:08:21.023Z,9.81
2023-03-26T07:14:30.698Z,9.92
2023-03-26T07:17:33.502Z,9.79
2023-03-26T07:20:36.568Z,9.77
2023-03-26T07:23:39.668Z,9.70
2023-03-26T07:26:51.131Z,9.74
2023-03-26T07:30:15.237Z,10.01
2023-03-26T07:33:27.393Z,10.07
2023-03-26T07:36:38.744Z,10.19
2023-03-26T07:40:02.315Z,10.19
2023-03-26T07:43:44.510Z,10.25
2023-03-26T07:46:49.045Z,10.26
2023-03-26T07:49:54.489Z,10.35
2023-03-26T07:52:57.673Z,10.48
2023-03-26T07:56:16.335Z,10.60
2023-03-26T07:59:40.681Z,10.56
2023-03-26T08:03:05.333Z,10.64
2023-03-26T08:06:23.928Z,10.93
2023-03-26T08:09:51.014Z,11.20
2023-03-26T08:13:12.583Z,11.55
2023-03-26T08:16:38.597Z,11.72
2023-03-26T08:19:41.360Z,11.76
2023-03-26T08:22:50.966Z,12.07
2023-03-26T08:26:02.767Z,12.12
2023-03-26T08:29:36.224Z,12.59
2023-03-26T08:32:39.584Z,12.72
2023-03-26T08:35:42.949Z,12.96
2023-03-26T08:38:46.904Z,12.40
2023-03-26T08:41:58.840Z,12.66
2023-03-26T08:45:07.002Z,13.36
2023-03-26T08:48:30.140Z,13.94
2023-03-26T08:51:40.125Z,14.00
2023-03-26T08:54:51.937Z,13.78
2023-03-26T08:58:24.405Z,13.72
2023-03-26T09:01:59.130Z,13.30
2023-03-26T09:05:22.953Z,13.62
2023-03-26T09:08:53.796Z,13.55
2023-03-26T09:12:12.528Z,14.06
2023-03-26T09:15:35.986Z,14.11
2023-03-26T09:19:01.121Z,14.79
2023-03-26T09:22:41.877Z,14.84
2023-03-26T09:26:05.067Z,15.36
2023-03-26T09:29:41.500Z,15.60
2023-03-26T09:33:07.571Z,15.22
2023-03-26T09:36:29.043Z,15.39
2023-03-26T09:39:38.033Z,15.60
2023-03-26T09:42:46.353Z,15.35
2023-03-26T09:46:29.446Z,15.54
2023-03-26T09:49:47.311Z,14.59
2023-03-26T09:53:12.070Z,15.53
2023-03-26T09:56:29.049Z,16.01
2023-03-26T09:59:43.929Z,16.24
2023-03-26T10:02:53.890Z,16.07
2023-03-26T10:06:12.788Z,17.04
2023-03-26T10:09:21.271Z,15.90
2023-03-26T10:12:39.839Z,16.16
2023-03-26T10:15:53.750Z,15.64
2023-03-26T10:19:02.543Z,15.52
2023-03-26T10:22:47.226Z,15.65
2023-03-26T10:26:04.615Z,16.23
2023-03-26T10:29:31.236Z,16.65
2023-03-26T10:32:47.440Z,16.57
2023-03-26T10:36:40.524Z,17.34
2023-03-26T10:40:21.479Z,18.16
2023-03-26T10:43:37.266Z,18.51
2023-03-26T10:47:01.824Z,17.81
2023-03-26T10:50:29.210Z,17.22
2023-03-26T10:53:49.279Z,17.69
2023-03-26T10:56:52.662Z,17.46
2023-03-26T11:00:01.153Z,18.32
2023-03-26T11:03:19.091Z,18.99
2023-03-26T11:06:50.778Z,18.44
2023-03-26T11:10:13.610Z,18.25
2023-03-26T11:13:22.359Z,18.70
2023-03-26T11:16:28.176Z,18.59
2023-03-26T11:19:41.825Z,18.45
2023-03-26T11:22:52.393Z,16.89
2023-03-26T11:26:07.485Z,18.10
2023-03-26T11:29:33.692Z,18.72
2023-03-26T11:32:42.962Z,18.46
2023-03-26T11:35:51.994Z,20.35
2023-03-26T11:38:58.185Z,18.52
2023-03-26T11:42:07.908Z,17.41
2023-03-26T11:45:19.906Z,17.01
2023-03-26T11:48:28.690Z,16.92
2023-03-26T11:51:36.523Z,18.54
2023-03-26T11:54:39.574Z,19.52
2023-03-26T11:57:47.857Z,19.26
2023-03-26T12:00:53.146Z,19.92
2023-03-26T12:04:05.556Z,20.15
2023-03-26T12:07:18.779Z,19.55
2023-03-26T12:10:24.617Z,20.10
2023-03-26T12:13:27.455Z,20.90
2023-03-26T12:16:30.725Z,20.33
2023-03-26T12:19:42.214Z,20.76
2023-03-26T12:22:47.942Z,20.70
2023-03-26T12:26:18.214Z,20.52
2023-03-26T12:29:21.158Z,19.54
2023-03-26T12:32:35.508Z,18.67
2023-03-26T12:35:46.459Z,19.92
2023-03-26T12:39:15.873Z,18.95
2023-03-26T12:44:44.533Z,19.41
2023-03-26T12:47:15.021Z,19.48
2023-03-26T12:49:22.643Z,19.42
2023-03-26T12:52:54.238Z,19.59
2023-03-26T12:56:02.450Z,20.70
2023-03-26T12:59:32.833Z,19.12
2023-03-26T13:02:52.233Z,19.83
2023-03-26T13:06:58.866Z,18.88
2023-03-26T13:09:57.336Z,19.77
2023-03-26T13:13:25.012Z,20.40
2023-03-26T13:16:52.612Z,21.77
2023-03-26T13:20:06.912Z,20.03
2023-03-26T13:23:26.959Z,20.83
2023-03-26T13:26:46.601Z,19.17
2023-03-26T13:30:13.118Z,19.65
2023-03-26T13:33:31.123Z,19.79
2023-03-26T13:36:46.899Z,18.97
2023-03-26T13:40:24.981Z,19.53
2023-03-26T13:43:42.830Z,19.29
2023-03-26T13:46:55.702Z,19.93
2023-03-26T13:50:20.555Z,20.26
2023-03-26T13:53:33.015Z,18.98
2023-03-26T13:56:52.645Z,19.80
2023-03-26T14:00:08.363Z,20.10
2023-03-26T14:03:29.338Z,20.49
2023-03-26T14:06:57.659Z,19.58
2023-03-26T14:10:25.466Z,20.21
2023-03-26T14:13:41.445Z,20.32
2023-03-26T14:16:48.756Z,20.08
2023-03-26T14:19:54.969Z,20.58
2023-03-26T14:23:26.824Z,20.79
2023-03-26T14:27:13.308Z,20.42
2023-03-26T14:30:37.880Z,20.28
2023-03-26T14:34:38.598Z,19.64
2023-03-26T14:37:50.151Z,20.13
2023-03-26T14:41:14.982Z,19.75
2023-03-26T14:44:48.307Z,20.17
2023-03-26T14:48:02.948Z,19.07
2023-03-26T14:51:30.314Z,18.97
2023-03-26T14:54:38.620Z,17.89
2023-03-26T14:57:56.528Z,17.15
2023-03-26T15:01:27.105Z,17.14
2023-03-26T15:05:07.225Z,16.83
2023-03-26T15:08:33.821Z,16.65
2023-03-26T15:11:51.587Z,16.26
2023-03-26T15:14:55.183Z,16.21
2023-03-26T15:18:31.796Z,16.18
2023-03-26T15:22:04.567Z,15.96
2023-03-26T15:25:33.105Z,16.04
2023-03-26T15:28:47.988Z,16.18
2023-03-26T15:31:57.853Z,16.16
2023-03-26T15:35:17.634Z,16.06
2023-03-26T15:38:50.387Z,16.11
2023-03-26T15:42:04.214Z,15.93
2023-03-26T15:45:08.056Z,15.91
2023-03-26T15:48:14.000Z,15.79
2023-03-26T15:51:26.336Z,15.66
2023-03-26T15:54:45.915Z,15.66
2023-03-26T15:57:57.150Z,15.58
2023-03-26T16:01:20.067Z,15.58
2023-03-26T16:04:51.833Z,15.57
2023-03-26T16:08:19.229Z,15.52
2023-03-26T16:11:57.118Z,15.50
2023-03-26T16:15:39.205Z,15.47
2023-03-26T16:18:43.788Z,15.41
2023-03-26T16:22:02.479Z,15.35
2023-03-26T16:25:26.844Z,15.27
2023-03-26T16:28:36.506Z,15.22
2023-03-26T16:32:15.872Z,15.20
2023-03-26T16:35:18.946Z,15.09
2023-03-26T16:38:25.091Z,15.07
2023-03-26T16:41:31.938Z,15.01
2023-03-26T16:44:50.137Z,14.96
2023-03-26T16:48:07.574Z,14.89
2023-03-26T16:51:25.955Z,14.86
2023-03-26T16:54:58.484Z,14.78
2023-03-26T16:58:32.388Z,14.71
2023-03-26T17:02:00.241Z,14.64
2023-03-26T17:05:45.518Z,14.58
2023-03-26T17:08:59.620Z,14.56
2023-03-26T17:12:05.649Z,14.48
2023-03-26T17:15:27.610Z,14.51
2023-03-26T17:19:17.999Z,14.51
2023-03-26T17:22:47.246Z,14.44
2023-03-26T17:26:18.683Z,14.44
2023-03-26T17:29:52.561Z,14.38
2023-03-26T17:33:07.512Z,14.37
2023-03-26T17:36:13.741Z,14.26
2023-03-26T17:39:39.976Z,14.20
2023-03-26T17:43:02.256Z,14.12
2023-03-26T17:46:23.552Z,14.09
2023-03-26T17:49:29.610Z,14.03
2023-03-26T17:53:14.503Z,13.95
2023-03-26T17:56:25.295Z,13.91
2023-03-26T17:59:28.866Z,13.87
2023-03-26T18:02:39.692Z,13.83
2023-03-26T18:05:46.577Z,13.74
2023-03-26T18:09:11.374Z,13.73
2023-03-26T18:12:39.547Z,13.62
2023-03-26T18:15:45.022Z,13.55
2023-03-26T18:18:52.382Z,13.47
2023-03-26T18:22:03.975Z,13.47
2023-03-26T18:25:07.312Z,13.45
2023-03-26T18:28:14.556Z,13.47
2023-03-26T18:31:20.917Z,13.43
2023-03-26T18:34:26.267Z,13.41
2023-03-26T18:37:34.573Z,13.37
2023-03-26T18:40:43.741Z,13.38
2023-03-26T18:43:46.872Z,13.36
2023-03-26T18:46:54.830Z,13.40
2023-03-26T18:49:58.472Z,13.39
2023-03-26T18:53:02.411Z,13.38
2023-03-26T18:56:28.661Z,13.39
2023-03-26T18:59:35.474Z,13.11
2023-03-26T19:02:44.945Z,12.67
2023-03-26T19:05:48.763Z,11.66
2023-03-26T19:08:53.841Z,11.03
2023-03-26T19:11:58.941Z,10.81
2023-03-26T19:15:08.111Z,10.78
2023-03-26T19:18:20.354Z,10.63
2023-03-26T19:21:25.775Z,10.55
2023-03-26T19:24:29.141Z,10.56
2023-03-26T19:27:33.091Z,10.64
2023-03-26T19:30:40.805Z,10.70
2023-03-26T19:33:44.922Z,10.62
2023-03-26T19:37:05.130Z,10.59
2023-03-26T19:40:31.212Z,10.53
2023-03-26T19:43:34.089Z,10.47
2023-03-26T19:46:52.805Z,10.34
2023-03-26T19:50:04.493Z,10.27
2023-03-26T19:53:16.104Z,10.07
2023-03-26T19:56:21.074Z,9.96
2023-03-26T19:59:24.347Z,9.90
2023-03-26T20:02:30.295Z,9.82
2023-03-26T20:05:34.630Z,9.73
2023-03-26T20:08:40.705Z,9.70
2023-03-26T20:11:47.300Z,9.66
2023-03-26T20:14:50.507Z,9.65
2023-03-26T20:17:54.858Z,9.61
2023-03-26T20:20:58.893Z,9.57
2023-03-26T20:24:02.379Z,9.59
2023-03-26T20:27:08.459Z,9.50
2023-03-26T20:30:12.150Z,9.44
2023-03-26T20:33:27.262Z,9.41
2023-03-26T20:36:33.274Z,9.43
2023-03-26T20:39:37.972Z,9.32
2023-03-26T20:42:42.803Z,9.30
2023-03-26T20:45:46.333Z,9.35
2023-03-26T20:48:49.797Z,9.34
2023-03-26T20:51:56.291Z,9.26
2023-03-26T20:55:00.460Z,9.21
2023-03-26T20:58:04.213Z,9.03
2023-03-26T21:01:11.822Z,8.85
2023-03-26T21:04:16.400Z,8.87
2023-03-26T21:07:19.893Z,8.83
2023-03-26T21:10:26.343Z,8.79
2023-03-26T21:13:43.682Z,8.75
2023-03-26T21:16:47.053Z,8.73
2023-03-26T21:19:50.284Z,8.71
2023-03-26T21:23:10.231Z,8.63
2023-03-26T21:26:25.523Z,8.66
2023-03-26T21:29:28.865Z,8.63
2023-03-26T21:32:31.931Z,8.80
2023-03-26T21:35:37.503Z,8.73
2023-03-26T21:38:43.808Z,8.64
2023-03-26T21:42:04.889Z,8.57
2023-03-26T21:45:12.464Z,8.63
2023-03-26T21:48:18.855Z,8.76
2023-03-26T21:51:24.869Z,8.83
2023-03-26T21:54:29.985Z,8.81
2023-03-26T21:57:55.174Z,8.63
2023-03-26T22:01:20.880Z,8.59
2023-03-26T22:04:30.858Z,8.47
2023-03-26T22:07:48.790Z,8.41
2023-03-26T22:10:51.905Z,8.31
2023-03-26T22:13:56.464Z,8.25
2023-03-26T22:16:59.291Z,8.19
2023-03-26T22:20:08.008Z,8.23
2023-03-26T22:23:14.124Z,8.28
2023-03-26T22:26:17.091Z,8.23
2023-03-26T22:29:23.041Z,8.27
2023-03-26T22:32:26.338Z,8.21
2023-03-26T22:35:41.406Z,8.25
2023-03-26T22:38:44.244Z,8.19
2023-03-26T22:41:47.254Z,8.16
2023-03-26T22:44:50.199Z,8.19
2023-03-26T22:48:03.025Z,8.19
2023-03-26T22:51:09.276Z,8.20
2023-03-26T22:54:12.380Z,8.18
2023-03-26T22:57:16.681Z,8.15
2023-03-26T23:00:22.405Z,8.11
2023-03-26T23:03:35.132Z,8.01
2023-03-26T23:06:38.492Z,7.90
2023-03-26T23:09:41.896Z,7.89
2023-03-26T23:12:47.744Z,7.88
2023-03-26T23:15:55.280Z,7.86
2023-03-26T23:18:58.396Z,7.86
2023-03-26T23:22:01.385Z,7.84
2023-03-26T23:25:04.643Z,7.83
2023-03-26T23:28:07.460Z,7.82
2023-03-26T23:31:12.659Z,7.76
2023-03-26T23:34:17.230Z,7.76
2023-03-26T23:37:23.557Z,7.75
2023-03-26T23:40:28.273Z,7.71
2023-03-26T23:43:34.128Z,7.68
2023-03-26T23:46:36.957Z,7.65
2023-03-26T23:49:39.704Z,7.62
2023-03-26T23:52:45.811Z,7.72
2023-03-26T23:55:50.042Z,7.66
2023-03-26T23:58:53.619Z,7.71
